Warnow Moon — A8VX3 — position and weather

sailwx.info

Track history (hours):
 
Tides and Currents Weather Stations Pressure Air Temp Water Temp Dewpoint Dewpoint Depression Visibility Wind Speed Wind Dir Waves Ship Positions

Warnow Moon

Last reported at 2016-Feb-01 22:32 UTC. Time now 2016-Feb-11 10:47 UTC.
Position S 33°01' E 017°59'.
Warning: this ship's position is 9 days out of date.

Length 180 m; draft 8.2 m.

Type: Cargo ship. MMSI: 636016909.

Date/timePositionNaut miles runAvg speedWind from/ knotsBaromVisibWave heightAir tempDewpointWater temp
2016-Feb-01 22:32S 33°01' E 017°59'0 0.0
2016-Feb-01 21:32S 33°01' E 017°59'0 0.0
2016-Feb-01 20:33S 33°01' E 017°59'0 0.0
2016-Feb-01 19:32S 33°01' E 017°59'0 0.0
2016-Feb-01 18:26S 33°01' E 017°59'0 0.0
2016-Feb-01 17:32S 33°01' E 017°59'0 0.0
2016-Feb-01 16:32S 33°01' E 017°59'0 0.0
2016-Feb-01 15:32S 33°01' E 017°59'0 0.0
2016-Feb-01 14:32S 33°01' E 017°59'0 0.0
2016-Feb-01 13:32S 33°01' E 017°59'0 0.0
2016-Feb-01 12:32S 33°01' E 017°59'0 0.0
2016-Feb-01 10:26S 33°01' E 017°59'0 0.0
2016-Feb-01 09:32S 33°01' E 017°59'0 0.0
2016-Feb-01 08:29S 33°01' E 017°59'0 0.0
2016-Feb-01 07:26S 33°01' E 017°59'0 0.0
2016-Feb-01 06:32S 33°01' E 017°59'0 0.0
2016-Feb-01 05:32S 33°01' E 017°59'0 0.0
2016-Feb-01 04:32S 33°01' E 017°59'0 0.0
2016-Feb-01 03:32S 33°01' E 017°59'0 0.0
2016-Feb-01 02:32S 33°01' E 017°59'0 0.0
2016-Feb-01 01:26S 33°01' E 017°59'0 0.0
2016-Feb-01 00:32S 33°01' E 017°59'0 0.0
2016-Jan-31 23:29S 33°01' E 017°59'0 0.0
2016-Jan-31 22:32S 33°01' E 017°59'0 0.0
2016-Jan-31 21:32S 33°01' E 017°59'0 0.0
2016-Jan-31 20:29S 33°01' E 017°59'0 0.0
2016-Jan-31 19:32S 33°01' E 017°59'5 0.2
2016-Jan-30 10:26S 33°05' E 017°55'4 4.0
2016-Jan-30 09:33S 33°05' E 017°50'2 1.8
2016-Jan-30 08:29S 33°05' E 017°53'43 8.1
2016-Jan-30 03:08S 33°48' E 018°02'814.1
2016-Jan-30 02:33S 33°56' E 018°04'2914.3
2016-Jan-30 00:33S 34°24' E 018°13'4213.8
2016-Jan-29 21:30S 34°44' E 018°58'5913.5
2016-Jan-29 17:09S 35°02' E 020°06'1514.0
2016-Jan-29 16:07S 34°59' E 020°23'1413.8
2016-Jan-29 15:08S 34°57' E 020°39'10713.4
2016-Jan-29 07:09S 34°44' E 022°49'20912.5
2016-Jan-28 14:28S 33°48' E 026°52'1413.8
2016-Jan-28 13:29S 33°41' E 027°06'2812.5
2016-Jan-28 11:16S 33°26' E 027°34'912.3
2016-Jan-28 10:32S 33°21' E 027°44'1413.0
2016-Jan-28 09:27S 33°13' E 027°58'6215.4
2016-Jan-28 05:23S 32°30' E 028°51'2117.7
2016-Jan-28 04:11S 32°15' E 029°09'1317.4
2016-Jan-28 03:25S 32°05' E 029°20'13314.5
2016-Jan-27 18:18S 30°22' E 030°57'911.7
2016-Jan-27 17:33S 30°15' E 031°03'1212.5
2016-Jan-27 16:34S 30°05' E 031°11'1313.2
2016-Jan-27 15:34S 29°54' E 031°20'1413.8
2016-Jan-27 14:34S 29°43' E 031°30'1414.0
2016-Jan-27 13:33S 29°32' E 031°40'1414.2
2016-Jan-27 12:34S 29°21' E 031°50'1413.8
2016-Jan-27 11:34S 29°10' E 031°60'1413.9
2016-Jan-27 10:34S 28°59' E 032°10'  
2016-Jan-24 19:24S 28°49' E 032°06'14 3.6
2016-Jan-24 15:33S 29°03' E 032°05'1312.8
2016-Jan-24 14:33S 29°10' E 031°53'1313.1
2016-Jan-24 13:33S 29°19' E 031°43'1313.1
2016-Jan-24 12:34S 29°28' E 031°32'1313.3
2016-Jan-24 11:34S 29°38' E 031°21'1413.8
2016-Jan-24 10:34S 29°48' E 031°11'8 8.0
2016-Jan-24 09:33S 29°52' E 031°03'0 0.0
2016-Jan-24 08:33S 29°52' E 031°03'0 0.0
2016-Jan-24 07:33S 29°52' E 031°03'0 0.0
2016-Jan-24 06:33S 29°52' E 031°03'0 0.0
2016-Jan-24 05:33S 29°52' E 031°03'0 0.0
2016-Jan-24 04:30S 29°52' E 031°03'0 0.0
2016-Jan-24 03:33S 29°52' E 031°03'0 0.0
2016-Jan-24 02:30S 29°52' E 031°03'0 0.0
2016-Jan-24 01:33S 29°52' E 031°03'0 0.0
2016-Jan-24 00:33S 29°52' E 031°03'0 0.0
2016-Jan-23 23:30S 29°52' E 031°03'0 0.0
2016-Jan-23 22:33S 29°52' E 031°03'0 0.0
2016-Jan-23 21:33S 29°52' E 031°03'0 0.0
2016-Jan-23 20:33S 29°52' E 031°03'0 0.0
2016-Jan-23 19:33S 29°52' E 031°03'0 0.0
2016-Jan-23 18:33S 29°52' E 031°03'0 0.0
2016-Jan-23 17:33S 29°52' E 031°03'0 0.0
2016-Jan-23 16:30S 29°52' E 031°03'0 0.0
2016-Jan-23 15:33S 29°52' E 031°03'0 0.0
2016-Jan-23 14:33S 29°52' E 031°03'0 0.0
2016-Jan-23 13:33S 29°52' E 031°03'0 0.0
2016-Jan-23 12:33S 29°52' E 031°03'0 0.0
2016-Jan-23 11:33S 29°52' E 031°03'0 0.0
2016-Jan-23 10:33S 29°52' E 031°03'0 0.0
2016-Jan-23 09:33S 29°52' E 031°03'0 0.0
2016-Jan-23 08:33S 29°52' E 031°03'0 0.0
2016-Jan-23 07:33S 29°52' E 031°03'0 0.0
2016-Jan-23 06:33S 29°52' E 031°03'0 0.0
2016-Jan-23 05:33S 29°52' E 031°03'0 0.0
2016-Jan-23 04:33S 29°52' E 031°03'0 0.0
2016-Jan-23 03:33S 29°52' E 031°03'0 0.0
2016-Jan-23 02:33S 29°52' E 031°03'0 0.0
2016-Jan-23 01:33S 29°52' E 031°03'0 0.0
2016-Jan-23 00:33S 29°52' E 031°03'0 0.0
2016-Jan-22 23:33S 29°52' E 031°03'0 0.0
2016-Jan-22 22:33S 29°52' E 031°03'  
Track history (hours):
 
Tides and Currents Weather Stations Pressure Air Temp Water Temp Dewpoint Dewpoint Depression Visibility Wind Speed Wind Dir Waves Ship Positions

Warnow Moon

Last reported at 2016-Feb-01 22:32 UTC. Time now 2016-Feb-11 10:47 UTC.
Position S 33°01' E 017°59'.
Warning: this ship's position is 9 days out of date.

Length 180 m; draft 8.2 m.

Type: Cargo ship. MMSI: 636016909.

Date/timePositionNaut miles runAvg speedWind from/ knotsBaromVisibWave heightAir tempDewpointWater temp
2016-Feb-01 22:32S 33°01' E 017°59'0 0.0
2016-Feb-01 21:32S 33°01' E 017°59'0 0.0
2016-Feb-01 20:33S 33°01' E 017°59'0 0.0
2016-Feb-01 19:32S 33°01' E 017°59'0 0.0
2016-Feb-01 18:26S 33°01' E 017°59'0 0.0
2016-Feb-01 17:32S 33°01' E 017°59'0 0.0
2016-Feb-01 16:32S 33°01' E 017°59'0 0.0
2016-Feb-01 15:32S 33°01' E 017°59'0 0.0
2016-Feb-01 14:32S 33°01' E 017°59'0 0.0
2016-Feb-01 13:32S 33°01' E 017°59'0 0.0
2016-Feb-01 12:32S 33°01' E 017°59'0 0.0
2016-Feb-01 10:26S 33°01' E 017°59'0 0.0
2016-Feb-01 09:32S 33°01' E 017°59'0 0.0
2016-Feb-01 08:29S 33°01' E 017°59'0 0.0
2016-Feb-01 07:26S 33°01' E 017°59'0 0.0
2016-Feb-01 06:32S 33°01' E 017°59'0 0.0
2016-Feb-01 05:32S 33°01' E 017°59'0 0.0
2016-Feb-01 04:32S 33°01' E 017°59'0 0.0
2016-Feb-01 03:32S 33°01' E 017°59'0 0.0
2016-Feb-01 02:32S 33°01' E 017°59'0 0.0
2016-Feb-01 01:26S 33°01' E 017°59'0 0.0
2016-Feb-01 00:32S 33°01' E 017°59'0 0.0
2016-Jan-31 23:29S 33°01' E 017°59'0 0.0
2016-Jan-31 22:32S 33°01' E 017°59'0 0.0
2016-Jan-31 21:32S 33°01' E 017°59'0 0.0
2016-Jan-31 20:29S 33°01' E 017°59'0 0.0
2016-Jan-31 19:32S 33°01' E 017°59'5 0.2
2016-Jan-30 10:26S 33°05' E 017°55'4 4.0
2016-Jan-30 09:33S 33°05' E 017°50'2 1.8
2016-Jan-30 08:29S 33°05' E 017°53'43 8.1
2016-Jan-30 03:08S 33°48' E 018°02'814.1
2016-Jan-30 02:33S 33°56' E 018°04'2914.3
2016-Jan-30 00:33S 34°24' E 018°13'4213.8
2016-Jan-29 21:30S 34°44' E 018°58'5913.5
2016-Jan-29 17:09S 35°02' E 020°06'1514.0
2016-Jan-29 16:07S 34°59' E 020°23'1413.8
2016-Jan-29 15:08S 34°57' E 020°39'10713.4
2016-Jan-29 07:09S 34°44' E 022°49'20912.5
2016-Jan-28 14:28S 33°48' E 026°52'1413.8
2016-Jan-28 13:29S 33°41' E 027°06'2812.5
2016-Jan-28 11:16S 33°26' E 027°34'912.3
2016-Jan-28 10:32S 33°21' E 027°44'1413.0
2016-Jan-28 09:27S 33°13' E 027°58'6215.4
2016-Jan-28 05:23S 32°30' E 028°51'2117.7
2016-Jan-28 04:11S 32°15' E 029°09'1317.4
2016-Jan-28 03:25S 32°05' E 029°20'13314.5
2016-Jan-27 18:18S 30°22' E 030°57'911.7
2016-Jan-27 17:33S 30°15' E 031°03'1212.5
2016-Jan-27 16:34S 30°05' E 031°11'1313.2
2016-Jan-27 15:34S 29°54' E 031°20'1413.8
2016-Jan-27 14:34S 29°43' E 031°30'1414.0
2016-Jan-27 13:33S 29°32' E 031°40'1414.2
2016-Jan-27 12:34S 29°21' E 031°50'1413.8
2016-Jan-27 11:34S 29°10' E 031°60'1413.9
2016-Jan-27 10:34S 28°59' E 032°10'  
2016-Jan-24 19:24S 28°49' E 032°06'14 3.6
2016-Jan-24 15:33S 29°03' E 032°05'1312.8
2016-Jan-24 14:33S 29°10' E 031°53'1313.1
2016-Jan-24 13:33S 29°19' E 031°43'1313.1
2016-Jan-24 12:34S 29°28' E 031°32'1313.3
2016-Jan-24 11:34S 29°38' E 031°21'1413.8
2016-Jan-24 10:34S 29°48' E 031°11'8 8.0
2016-Jan-24 09:33S 29°52' E 031°03'0 0.0
2016-Jan-24 08:33S 29°52' E 031°03'0 0.0
2016-Jan-24 07:33S 29°52' E 031°03'0 0.0
2016-Jan-24 06:33S 29°52' E 031°03'0 0.0
2016-Jan-24 05:33S 29°52' E 031°03'0 0.0
2016-Jan-24 04:30S 29°52' E 031°03'0 0.0
2016-Jan-24 03:33S 29°52' E 031°03'0 0.0
2016-Jan-24 02:30S 29°52' E 031°03'0 0.0
2016-Jan-24 01:33S 29°52' E 031°03'0 0.0
2016-Jan-24 00:33S 29°52' E 031°03'0 0.0
2016-Jan-23 23:30S 29°52' E 031°03'0 0.0
2016-Jan-23 22:33S 29°52' E 031°03'0 0.0
2016-Jan-23 21:33S 29°52' E 031°03'0 0.0
2016-Jan-23 20:33S 29°52' E 031°03'0 0.0
2016-Jan-23 19:33S 29°52' E 031°03'0 0.0
2016-Jan-23 18:33S 29°52' E 031°03'0 0.0
2016-Jan-23 17:33S 29°52' E 031°03'0 0.0
2016-Jan-23 16:30S 29°52' E 031°03'0 0.0
2016-Jan-23 15:33S 29°52' E 031°03'0 0.0
2016-Jan-23 14:33S 29°52' E 031°03'0 0.0
2016-Jan-23 13:33S 29°52' E 031°03'0 0.0
2016-Jan-23 12:33S 29°52' E 031°03'0 0.0
2016-Jan-23 11:33S 29°52' E 031°03'0 0.0
2016-Jan-23 10:33S 29°52' E 031°03'0 0.0
2016-Jan-23 09:33S 29°52' E 031°03'0 0.0
2016-Jan-23 08:33S 29°52' E 031°03'0 0.0
2016-Jan-23 07:33S 29°52' E 031°03'0 0.0
2016-Jan-23 06:33S 29°52' E 031°03'0 0.0
2016-Jan-23 05:33S 29°52' E 031°03'0 0.0
2016-Jan-23 04:33S 29°52' E 031°03'0 0.0
2016-Jan-23 03:33S 29°52' E 031°03'0 0.0
2016-Jan-23 02:33S 29°52' E 031°03'0 0.0
2016-Jan-23 01:33S 29°52' E 031°03'0 0.0
2016-Jan-23 00:33S 29°52' E 031°03'0 0.0
2016-Jan-22 23:33S 29°52' E 031°03'0 0.0
2016-Jan-22 22:33S 29°52' E 031°03'  

Dump ship's entire track history